Detall de PIREP

Printer-friendly versionPDF version

[2009/10/31 17:07:00]
Flight IATA:CT2307
Pilot Number:026
Company ICAO:CAT
Aircraft Type:DC85/A
PAX:136
Departing Airport: LIRQ
Destination Airport: LIEA
Alternate Airport:LIEO
Online: VATSIM
Route:MAREL UL12 ELB UL125 TALIN UL5 MINKA
Flight Level:FL250
No Slew and time accel
No pause
Crash detect
Detect pilot in Cockpit between each 30 and 45 minutes
17:07 Zero fuel Weight: 223010 Lbs, Fuel Weight: 26468 Lbs
17:07 VATSIM:LIRQ 311650Z 07008KT CAVOK 13/04 Q1024
17:07 VATSIM:LIEA 311650Z 01004KT CAVOK 16/13 Q1022
17:07 VOICE CATALONIAN
17:12 Parking Brakes off
17:14 Take-off
17:14 Take off Weight: 248203 Lbs
17:14 Wind: 069º @ 008 Knots Heading: 226º
17:14 POS N43º 48´ 16´´ E011º 11´ 45´´
17:14 Flaps:3 at 161 Knots
17:15 Gear Up: 163 Knots
17:15 Flaps:2 at 173 Knots
17:16 Flaps:1 at 183 Knots
17:17 Flaps:0 at 193 Knots
17:26 TOC
17:26 Fuel Weight: 20406 Lb
17:2
9 Wind:048º@029 Knots Heading: 195º Ground Speed: 486 Knots Altitude 25183 ft
17:33 TOD
17:33 Fuel Weight: 18799 Lb
17:34 TOC
17:34 Fuel Weight: 18513 Lb
17:42 TOD
17:42 Fuel Weight: 16586 Lb
17:44 Wind:014º@000 Knots Heading: 231º Ground Speed: 420 Knots Altitude 21735 ft
17:51 Flaps:1 at 271 Knots
17:52 Flaps:2 at 256 Knots
17:53 Flaps:3 at 211 Knots
17:56 Gear Down: 169 Knots
17:57 Gear Up: 169 Knots
17:58 Flaps:2 at 160 Knots
17:58 Flaps:1 at 157 Knots
17:58 Flaps:0 at 160 Knots
17:59 Wind:016º@004 Knots Heading: 204º Ground Speed: 215 Knots Altitude 2106 ft
18:08 Flaps:1 at 173 Knots
18:09 Flaps:2 at 188 Knots
18:09 Flaps:3 at 201 Knots
18:10 Flaps:4 at 199 Knots
18:10 Gear Down: 198 Knots
18:10 Flaps:3 at 187 Knots
18:10 Flaps:4 at 173 Knots
18:11 Flaps:5 at 154 Knots
18:11 TouchDown:Rate -1088 ft/min Speed: 144 Knots
18:12 VATSIM:LIEA 311750Z
03004KT CAVOK 15/13 Q1023
18:12 Land
18:12 Wind:028º@004 Knots
18:12 Heading: 202º
18:12 Flight Duration: 00:58
18:12 Landing Weight: 236160 Lbs
18:12 POS N40º 37´ 55´´ E008º 17´ 27´´
18:13 Parking brakes on
18:13 Block to Block Duration: 01:01
18:13 Final Fuel: 12914 Lbls
18:13 Spent Fuel: 13553 Lbls
18:13 Flight Length: 312 NM
18:13 TOD Land Length: 126 NM

Exportar CSV

Powered by Drupal - Modified by Danger4k